createdAt,value
2019-03-21T00:02:03.438Z,1657.13
2019-03-21T00:07:07.695Z,1639.67
2019-03-21T00:12:12.096Z,1630.93
2019-03-21T00:17:16.198Z,1627.20
2019-03-21T00:22:20.475Z,1807.50
2019-03-21T00:27:24.022Z,1676.97
2019-03-21T00:32:27.896Z,1712.90
2019-03-21T00:37:32.270Z,1738.03
2019-03-21T00:42:36.654Z,1878.87
2019-03-21T00:47:40.270Z,1776.63
2019-03-21T00:52:44.361Z,1857.87
2019-03-21T00:57:48.750Z,1898.73
2019-03-21T01:02:52.987Z,1906.83
2019-03-21T01:07:57.279Z,1976.80
2019-03-21T01:13:01.570Z,1874.47
2019-03-21T01:18:06.054Z,1955.53
2019-03-21T01:23:09.755Z,1977.97
2019-03-21T01:28:14.426Z,1955.23
2019-03-21T01:33:18.107Z,1976.03
2019-03-21T01:38:22.619Z,1997.57
2019-03-21T01:43:26.178Z,1995.33
2019-03-21T01:48:30.445Z,1731.23
2019-03-21T01:53:35.305Z,1748.63
2019-03-21T01:58:39.590Z,1790.80
2019-03-21T02:03:43.962Z,1588.77
2019-03-21T02:08:48.525Z,1891.80
2019-03-21T02:13:52.779Z,1697.10
2019-03-21T02:18:56.498Z,1629.60
2019-03-21T02:24:00.839Z,1736.27
2019-03-21T02:29:04.409Z,1754.60
2019-03-21T02:34:08.719Z,1653.80
2019-03-21T02:39:12.952Z,1500.13
2019-03-21T02:44:17.391Z,1747.53
2019-03-21T02:49:21.860Z,1603.47
2019-03-21T02:54:26.224Z,1553.07
2019-03-21T02:59:29.950Z,1805.97
2019-03-21T03:04:34.264Z,1867.97
2019-03-21T03:09:38.756Z,1608.43
2019-03-21T03:14:42.356Z,1999.90
2019-03-21T03:19:45.999Z,1826.10
2019-03-21T03:24:50.320Z,1829.83
2019-03-21T03:29:53.871Z,1875.40
2019-03-21T03:34:58.358Z,1713.13
2019-03-21T03:40:03.192Z,1648.43
2019-03-21T03:45:10.230Z,1603.40
2019-03-21T03:50:14.663Z,1749.50
2019-03-21T03:55:19.143Z,1703.00
2019-03-21T04:00:22.810Z,1726.47
2019-03-21T04:05:27.633Z,1643.67
2019-03-21T04:10:32.555Z,1748.80
2019-03-21T04:15:51.323Z,1692.77
2019-03-21T04:20:43.504Z,1741.53
2019-03-21T04:25:48.708Z,1525.50
2019-03-21T04:30:52.269Z,1814.57
2019-03-21T04:35:55.964Z,1580.90
2019-03-21T04:41:00.332Z,1592.83
2019-03-21T04:46:04.074Z,1646.07
2019-03-21T04:51:08.792Z,1680.37
2019-03-21T04:56:12.404Z,1719.40
2019-03-21T05:01:16.636Z,1732.00
2019-03-21T05:06:20.272Z,1716.50
2019-03-21T05:11:23.863Z,1705.80
2019-03-21T05:16:27.405Z,1740.20
2019-03-21T05:21:31.663Z,1697.73
2019-03-21T05:26:35.275Z,1832.70
2019-03-21T05:31:39.530Z,1751.67
2019-03-21T05:36:43.179Z,1819.07
2019-03-21T05:41:47.084Z,1731.20
2019-03-21T05:46:51.482Z,1803.00
2019-03-21T05:51:55.771Z,1776.60
2019-03-21T05:56:59.407Z,1587.90
2019-03-21T06:02:03.698Z,1655.67
2019-03-21T06:07:15.303Z,1705.67
2019-03-21T06:12:18.975Z,1661.63
2019-03-21T06:17:22.555Z,1741.63
2019-03-21T06:22:51.479Z,1621.67
2019-03-21T06:27:55.030Z,1593.03
2019-03-21T06:32:59.274Z,1662.67
2019-03-21T06:38:02.864Z,1586.53
2019-03-21T06:43:07.133Z,1605.87
2019-03-21T06:48:11.391Z,1379.40
2019-03-21T06:53:14.967Z,1420.33
2019-03-21T06:58:19.211Z,1355.33
2019-03-21T07:03:23.451Z,1328.57
2019-03-21T07:08:27.698Z,1233.80
2019-03-21T07:13:31.958Z,1112.53
2019-03-21T07:18:36.248Z,1050.13
2019-03-21T07:23:40.494Z,1178.70
2019-03-21T07:28:44.795Z,978.33
2019-03-21T07:33:49.074Z,985.70
2019-03-21T07:38:52.736Z,1584.60
2019-03-21T07:43:56.998Z,1021.47
2019-03-21T07:49:01.250Z,991.63
2019-03-21T07:54:05.585Z,970.47
2019-03-21T07:59:09.150Z,1207.67
2019-03-21T08:04:13.679Z,1445.90
2019-03-21T08:09:17.918Z,1004.83
2019-03-21T08:14:21.738Z,931.03
2019-03-21T08:19:26.152Z,1163.07
2019-03-21T08:24:29.738Z,1039.97
2019-03-21T08:29:33.467Z,1012.03
2019-03-21T08:34:37.951Z,1110.70
2019-03-21T08:39:42.317Z,1345.37
2019-03-21T08:44:46.868Z,1035.20
2019-03-21T08:49:50.848Z,1053.10
2019-03-21T08:54:54.402Z,1058.50
2019-03-21T08:59:58.763Z,1114.40
2019-03-21T09:05:03.162Z,1138.53
2019-03-21T09:10:08.209Z,1197.77
2019-03-21T09:15:13.428Z,1223.80
2019-03-21T09:20:18.903Z,1128.37
2019-03-21T09:25:22.665Z,1762.33
2019-03-21T09:30:27.023Z,1363.63
2019-03-21T09:35:31.933Z,1468.13
2019-03-21T09:40:36.211Z,1147.67
2019-03-21T09:45:39.790Z,1420.77
2019-03-21T09:50:44.161Z,1299.07
2019-03-21T09:55:48.402Z,1255.70
2019-03-21T10:00:52.730Z,1151.60
2019-03-21T10:05:56.316Z,1494.93
2019-03-21T10:11:00.646Z,1360.33
2019-03-21T10:16:04.379Z,1163.83
2019-03-21T10:21:08.691Z,1010.60
2019-03-21T10:26:12.926Z,1279.33
2019-03-21T10:31:17.167Z,1047.37
2019-03-21T10:36:21.391Z,999.33
2019-03-21T10:41:25.659Z,977.43
2019-03-21T10:46:29.239Z,991.57
2019-03-21T10:51:33.706Z,997.07
2019-03-21T10:56:37.934Z,1047.37
2019-03-21T11:01:41.490Z,1674.23
2019-03-21T11:06:45.892Z,1107.77
2019-03-21T11:11:50.459Z,1156.97
2019-03-21T11:16:54.293Z,1061.83
2019-03-21T11:22:06.274Z,1091.83
2019-03-21T11:27:03.885Z,1999.90
2019-03-21T11:32:09.177Z,1134.60
2019-03-21T11:37:13.068Z,1104.03
2019-03-21T11:42:16.661Z,1039.17
2019-03-21T11:47:20.216Z,1100.63
2019-03-21T11:52:23.856Z,1123.03
2019-03-21T11:57:27.407Z,1065.23
2019-03-21T12:02:31.905Z,1191.27
2019-03-21T12:07:35.531Z,1136.57
2019-03-21T12:12:39.776Z,1101.17
2019-03-21T12:17:43.341Z,1097.27
2019-03-21T12:22:47.594Z,1117.47
2019-03-21T12:27:51.930Z,1142.73
2019-03-21T12:32:56.255Z,1155.00
2019-03-21T12:38:00.626Z,1217.87
2019-03-21T12:43:04.730Z,1218.03
2019-03-21T12:48:08.285Z,1248.33
2019-03-21T12:53:12.684Z,1718.90
2019-03-21T12:58:17.193Z,1360.80
2019-03-21T13:03:20.767Z,1598.50
2019-03-21T13:08:33.377Z,1514.57
2019-03-21T13:13:31.060Z,1209.37
2019-03-21T13:18:34.787Z,1051.60
2019-03-21T13:23:39.032Z,1072.20
2019-03-21T13:28:43.279Z,1114.70
2019-03-21T13:33:47.595Z,1884.27
2019-03-21T13:38:51.879Z,1116.27
2019-03-21T13:43:57.205Z,1121.07
2019-03-21T13:49:01.446Z,1123.33
2019-03-21T13:54:05.696Z,1209.57
2019-03-21T13:59:09.971Z,1849.57
2019-03-21T14:04:14.224Z,1138.00
2019-03-21T14:09:20.301Z,1777.53
2019-03-21T14:14:24.451Z,1131.90
2019-03-21T14:19:28.770Z,1154.13
2019-03-21T14:24:33.005Z,1144.33
2019-03-21T14:29:37.262Z,1282.90
2019-03-21T14:34:41.520Z,1241.30
2019-03-21T14:39:45.775Z,1215.63
2019-03-21T14:44:50.106Z,1597.87
2019-03-21T14:49:54.375Z,1149.87
2019-03-21T14:54:59.030Z,1149.13
2019-03-21T15:00:04.535Z,1127.47
2019-03-21T15:05:09.381Z,1285.80
2019-03-21T15:10:14.647Z,1591.13
2019-03-21T15:15:19.006Z,1260.43
2019-03-21T15:20:23.368Z,1999.90
2019-03-21T15:25:27.708Z,1227.57
2019-03-21T15:30:31.990Z,1158.73
2019-03-21T15:35:36.498Z,1272.37
2019-03-21T15:40:40.778Z,1168.37
2019-03-21T15:45:45.016Z,1260.83
2019-03-21T15:50:49.539Z,1479.73
2019-03-21T15:55:53.793Z,1288.33
2019-03-21T16:00:58.030Z,1282.57
2019-03-21T16:06:02.356Z,1286.80
2019-03-21T16:11:06.602Z,1150.37
2019-03-21T16:16:12.849Z,1100.33
2019-03-21T16:21:17.123Z,1136.23
2019-03-21T16:26:21.444Z,1731.93
2019-03-21T16:31:26.263Z,1165.10
2019-03-21T16:36:30.516Z,1658.40
2019-03-21T16:41:35.035Z,1146.90
2019-03-21T16:46:39.354Z,1168.63
2019-03-21T16:51:43.623Z,1134.53
2019-03-21T16:56:47.861Z,1108.57
2019-03-21T17:01:52.130Z,1133.33
2019-03-21T17:06:56.451Z,1199.20
2019-03-21T17:12:00.709Z,1262.13
2019-03-21T17:17:05.431Z,1240.13
2019-03-21T17:22:09.667Z,1320.20
2019-03-21T17:27:13.952Z,1288.33
2019-03-21T17:32:18.512Z,1434.63
2019-03-21T17:37:22.768Z,1408.97
2019-03-21T17:42:27.111Z,1455.90
2019-03-21T17:47:31.371Z,1605.33
2019-03-21T17:52:35.878Z,1598.63
2019-03-21T17:57:40.499Z,1603.53
2019-03-21T18:02:44.991Z,1593.47
2019-03-21T18:07:49.268Z,1495.23
2019-03-21T18:12:53.763Z,1562.70
2019-03-21T18:18:01.200Z,1445.93
2019-03-21T18:23:05.537Z,1446.57
2019-03-21T18:28:09.879Z,1544.43
2019-03-21T18:33:14.241Z,1718.67
2019-03-21T18:38:18.503Z,1413.97
2019-03-21T18:43:22.787Z,1583.97
2019-03-21T18:48:27.302Z,1501.10
2019-03-21T18:53:31.796Z,1661.43
2019-03-21T18:58:36.051Z,1832.07
2019-03-21T19:03:40.594Z,1704.27
2019-03-21T19:08:44.845Z,1677.37
2019-03-21T19:13:50.392Z,1757.23
2019-03-21T19:18:54.650Z,1876.63
2019-03-21T19:23:58.899Z,1772.70
2019-03-21T19:29:03.255Z,1725.53
2019-03-21T19:34:07.567Z,1832.97
2019-03-21T19:39:11.852Z,1960.17
2019-03-21T19:44:16.369Z,1898.10
2019-03-21T19:49:20.622Z,1909.87
2019-03-21T19:54:24.927Z,1862.50
2019-03-21T19:59:29.181Z,1889.87
2019-03-21T20:04:33.423Z,1878.10
2019-03-21T20:09:40.212Z,1849.97
2019-03-21T20:14:44.463Z,1830.33
2019-03-21T20:19:48.855Z,1797.63
2019-03-21T20:24:53.423Z,1847.03
2019-03-21T20:29:57.708Z,1851.33
2019-03-21T20:35:02.200Z,1946.80
2019-03-21T20:40:07.546Z,1845.07
2019-03-21T20:45:12.659Z,1820.43
2019-03-21T20:50:18.193Z,1831.23
2019-03-21T20:55:22.546Z,1865.07
2019-03-21T21:00:26.858Z,1804.50
2019-03-21T21:05:32.303Z,1884.13
2019-03-21T21:10:36.541Z,1881.50
2019-03-21T21:15:40.782Z,1894.07
2019-03-21T21:20:45.103Z,1983.33
2019-03-21T21:25:50.415Z,1996.63
2019-03-21T21:30:54.674Z,1788.13
2019-03-21T21:35:59.174Z,1988.30
2019-03-21T21:41:03.423Z,1869.73
2019-03-21T21:46:07.687Z,1881.13
2019-03-21T21:51:11.943Z,1879.97
2019-03-21T21:56:18.046Z,1715.67
2019-03-21T22:01:22.579Z,1671.70
2019-03-21T22:06:26.833Z,1799.67
2019-03-21T22:11:31.090Z,1911.97
2019-03-21T22:16:35.331Z,1751.00
2019-03-21T22:21:40.099Z,1917.30
2019-03-21T22:26:44.361Z,1824.93
2019-03-21T22:31:48.602Z,1640.83
2019-03-21T22:36:54.881Z,1999.90
2019-03-21T22:41:59.150Z,1999.90
2019-03-21T22:47:03.399Z,1999.90
2019-03-21T22:52:07.630Z,1686.77
2019-03-21T22:57:11.880Z,1599.63
2019-03-21T23:02:16.384Z,1536.90
2019-03-21T23:07:20.614Z,1999.90
2019-03-21T23:12:24.863Z,1657.83
2019-03-21T23:17:29.151Z,1925.93
2019-03-21T23:22:33.402Z,1792.80
2019-03-21T23:27:37.931Z,1999.90
2019-03-21T23:32:42.180Z,1782.13
2019-03-21T23:37:47.619Z,1778.33
2019-03-21T23:42:51.927Z,1558.57
2019-03-21T23:47:56.330Z,1618.83
2019-03-21T23:53:00.568Z,1739.87
2019-03-21T23:58:04.858Z,1735.90
